LDPM weather

Medulin Campanoz Airport
Medulin, Istria County, Croatia

Public forecast

Using degrees Celsius for public forecast. Weather courtesy of forecast.io.

METAR (pilot weather report)

Closest report is Pula Airport, 3.1 nm (5.8 km) NNE. Retrieved 2019/09/23 12:30 UTC (0 seconds ago):

LDPL 231230Z 17003KT 090V240 8000 -RA SCT004 BKN008 18/18 Q1011 TEMPO 26010KT 4000 SHRA BKN005 SCT020TCU

TAF (pilot weather forecast)

Closest forecast is Pula Airport, 3.1 nm (5.8 km) NNE. Retrieved 2019/09/23 12:27 UTC (0 seconds ago):

TAF LDPL 231125Z 2312/2412 11008KT 9999 SCT015 BKN025 TX21/2411Z TN13/2404Z PROB40 TEMPO 2312/2323 RA BKN010 PROB30 TEMPO 2312/2321 28010KT 4000 TSRA BKN005 SCT020CB OVC025 BECMG 2313/2315 VRB02KT BECMG 2321/2323 07010KT BECMG 2408/2410 06005KT